createdAt,value
2023-04-30T00:00:15.873Z,10.20
2023-04-30T00:02:43.646Z,10.10
2023-04-30T00:05:11.534Z,10.10
2023-04-30T00:07:42.340Z,10.10
2023-04-30T00:10:11.187Z,10.10
2023-04-30T00:12:39.126Z,10.10
2023-04-30T00:15:07.384Z,10.10
2023-04-30T00:17:34.792Z,10.00
2023-04-30T00:20:02.158Z,10.00
2023-04-30T00:22:30.904Z,10.00
2023-04-30T00:24:58.322Z,9.90
2023-04-30T00:27:25.719Z,9.90
2023-04-30T00:29:53.376Z,9.90
2023-04-30T00:32:21.702Z,9.90
2023-04-30T00:34:49.407Z,9.90
2023-04-30T00:37:16.750Z,9.90
2023-04-30T00:39:44.154Z,9.90
2023-04-30T00:42:11.681Z,9.80
2023-04-30T00:44:38.975Z,9.80
2023-04-30T00:47:06.515Z,9.00
2023-04-30T00:49:34.210Z,9.80
2023-04-30T00:52:02.053Z,9.70
2023-04-30T00:54:29.416Z,9.70
2023-04-30T00:56:58.208Z,9.90
2023-04-30T00:59:25.632Z,9.70
2023-04-30T01:01:53.924Z,9.70
2023-04-30T01:04:22.652Z,9.70
2023-04-30T01:06:50.130Z,9.60
2023-04-30T01:09:18.047Z,9.70
2023-04-30T01:12:06.000Z,9.60
2023-04-30T01:14:48.482Z,9.20
2023-04-30T01:17:39.476Z,9.60
2023-04-30T01:20:10.795Z,9.60
2023-04-30T01:22:52.395Z,9.60
2023-04-30T01:25:53.304Z,9.40
2023-04-30T01:28:24.747Z,10.00
2023-04-30T01:30:53.258Z,9.50
2023-04-30T01:33:21.165Z,9.50
2023-04-30T01:36:16.815Z,9.50
2023-04-30T01:39:03.667Z,9.50
2023-04-30T01:42:16.345Z,9.40
2023-04-30T01:45:09.717Z,9.40
2023-04-30T01:47:41.665Z,9.40
2023-04-30T01:50:36.162Z,9.40
2023-04-30T01:53:14.854Z,9.40
2023-04-30T01:55:45.254Z,9.40
2023-04-30T01:58:16.830Z,9.40
2023-04-30T02:00:46.654Z,9.90
2023-04-30T02:03:14.109Z,9.30
2023-04-30T02:05:41.753Z,9.30
2023-04-30T02:08:09.092Z,9.30
2023-04-30T02:10:36.791Z,9.30
2023-04-30T02:13:05.923Z,9.20
2023-04-30T02:15:33.282Z,9.20
2023-04-30T02:18:00.920Z,9.30
2023-04-30T02:20:28.430Z,9.20
2023-04-30T02:22:55.864Z,9.20
2023-04-30T02:25:24.490Z,9.20
2023-04-30T02:27:52.440Z,8.80
2023-04-30T02:30:22.621Z,9.20
2023-04-30T02:32:49.996Z,9.10
2023-04-30T02:35:17.543Z,9.20
2023-04-30T02:37:45.069Z,9.20
2023-04-30T02:40:12.686Z,9.10
2023-04-30T02:42:43.066Z,9.10
2023-04-30T02:45:10.522Z,9.10
2023-04-30T02:47:40.334Z,9.10
2023-04-30T02:50:08.211Z,9.10
2023-04-30T02:52:35.552Z,9.10
2023-04-30T02:55:03.018Z,9.00
2023-04-30T02:57:30.359Z,9.10
2023-04-30T03:00:00.575Z,9.10
2023-04-30T03:02:27.945Z,9.10
2023-04-30T03:04:55.384Z,9.10
2023-04-30T03:07:22.764Z,9.00
2023-04-30T03:09:50.485Z,9.00
2023-04-30T03:12:17.818Z,9.00
2023-04-30T03:14:45.180Z,9.10
2023-04-30T03:17:14.340Z,9.10
2023-04-30T03:19:41.667Z,9.10
2023-04-30T03:22:11.062Z,9.10
2023-04-30T03:24:39.098Z,9.00
2023-04-30T03:27:06.419Z,9.00
2023-04-30T03:29:34.334Z,9.00
2023-04-30T03:32:01.893Z,9.00
2023-04-30T03:34:31.882Z,9.00
2023-04-30T03:36:59.218Z,9.00
2023-04-30T03:39:26.610Z,8.80
2023-04-30T03:41:53.950Z,8.90
2023-04-30T03:44:21.363Z,9.00
2023-04-30T03:46:51.417Z,8.90
2023-04-30T03:49:18.822Z,8.90
2023-04-30T03:51:47.096Z,9.00
2023-04-30T03:54:14.440Z,9.00
2023-04-30T03:56:43.234Z,9.00
2023-04-30T03:59:12.085Z,9.00
2023-04-30T04:01:42.103Z,9.10
2023-04-30T04:04:09.801Z,9.00
2023-04-30T04:06:38.633Z,9.00
2023-04-30T04:09:06.381Z,9.00
2023-04-30T04:11:34.294Z,9.00
2023-04-30T04:14:02.798Z,9.20
2023-04-30T04:16:30.241Z,9.10
2023-04-30T04:18:57.589Z,9.00
2023-04-30T04:21:25.368Z,9.00
2023-04-30T04:23:52.922Z,9.40
2023-04-30T04:26:22.036Z,9.00
2023-04-30T04:28:49.427Z,9.00
2023-04-30T04:31:16.765Z,9.00
2023-04-30T04:33:44.872Z,8.90
2023-04-30T04:36:12.214Z,8.90
2023-04-30T04:38:39.568Z,8.90
2023-04-30T04:41:06.945Z,8.90
2023-04-30T04:43:34.235Z,8.90
2023-04-30T04:46:01.564Z,8.80
2023-04-30T04:48:29.032Z,8.90
2023-04-30T04:50:56.639Z,8.80
2023-04-30T04:53:24.325Z,8.90
2023-04-30T04:55:52.578Z,8.80
2023-04-30T04:58:21.473Z,8.80
2023-04-30T05:00:48.874Z,8.80
2023-04-30T05:03:16.358Z,8.90
2023-04-30T05:05:44.020Z,9.00
2023-04-30T05:08:12.731Z,8.90
2023-04-30T05:10:40.559Z,8.90
2023-04-30T05:13:07.840Z,9.00
2023-04-30T05:15:35.126Z,9.00
2023-04-30T05:18:02.502Z,9.00
2023-04-30T05:20:30.472Z,9.00
2023-04-30T05:22:59.085Z,8.60
2023-04-30T05:25:27.779Z,9.00
2023-04-30T05:27:55.212Z,9.10
2023-04-30T05:30:22.576Z,9.00
2023-04-30T05:32:52.182Z,9.10
2023-04-30T05:35:22.405Z,9.00
2023-04-30T05:37:50.167Z,9.10
2023-04-30T05:40:17.659Z,9.10
2023-04-30T05:42:44.997Z,9.20
2023-04-30T05:45:14.709Z,9.10
2023-04-30T05:47:42.080Z,9.10
2023-04-30T05:50:10.479Z,9.20
2023-04-30T05:52:38.098Z,9.20
2023-04-30T05:55:07.319Z,9.20
2023-04-30T05:57:35.517Z,9.20
2023-04-30T06:00:03.769Z,9.30
2023-04-30T06:02:31.585Z,9.30
2023-04-30T06:04:59.389Z,9.40
2023-04-30T06:07:27.232Z,9.30
2023-04-30T06:09:54.963Z,9.40
2023-04-30T06:12:23.399Z,9.50
2023-04-30T06:14:52.570Z,9.50
2023-04-30T06:17:21.323Z,9.60
2023-04-30T06:19:49.783Z,9.70
2023-04-30T06:22:19.498Z,9.70
2023-04-30T06:24:46.805Z,9.70
2023-04-30T06:27:15.305Z,9.80
2023-04-30T06:29:43.125Z,9.90
2023-04-30T06:32:11.195Z,9.80
2023-04-30T06:34:39.209Z,9.90
2023-04-30T06:37:06.629Z,9.90
2023-04-30T06:39:33.974Z,10.00
2023-04-30T06:42:02.557Z,10.00
2023-04-30T06:44:29.861Z,10.10
2023-04-30T06:46:58.341Z,10.00
2023-04-30T06:49:25.798Z,10.10
2023-04-30T06:51:53.155Z,10.10
2023-04-30T06:54:22.893Z,10.10
2023-04-30T06:56:50.422Z,10.20
2023-04-30T06:59:18.022Z,10.20
2023-04-30T07:01:45.415Z,10.30
2023-04-30T07:04:12.852Z,10.30
2023-04-30T07:06:40.215Z,10.30
2023-04-30T07:09:10.286Z,10.40
2023-04-30T07:11:37.653Z,10.00
2023-04-30T07:14:05.186Z,10.50
2023-04-30T07:16:33.392Z,10.50
2023-04-30T07:19:01.088Z,10.60
2023-04-30T07:21:29.760Z,10.60
2023-04-30T07:23:57.379Z,10.60
2023-04-30T07:26:26.582Z,10.70
2023-04-30T07:28:53.971Z,10.80
2023-04-30T07:31:23.913Z,10.80
2023-04-30T07:33:51.622Z,10.90
2023-04-30T07:36:19.024Z,10.90
2023-04-30T07:38:46.318Z,11.00
2023-04-30T07:41:16.536Z,11.00
2023-04-30T07:43:43.917Z,11.10
2023-04-30T07:46:11.520Z,11.20
2023-04-30T07:48:41.474Z,11.30
2023-04-30T07:51:08.958Z,11.40
2023-04-30T07:53:36.597Z,11.50
2023-04-30T07:56:04.718Z,11.60
2023-04-30T07:58:33.259Z,11.60
2023-04-30T08:01:00.973Z,11.70
2023-04-30T08:03:28.394Z,11.80
2023-04-30T08:05:56.555Z,11.90
2023-04-30T08:08:24.292Z,11.90
2023-04-30T08:10:51.674Z,12.00
2023-04-30T08:13:20.812Z,12.10
2023-04-30T08:15:48.504Z,12.10
2023-04-30T08:20:43.717Z,12.30
2023-04-30T08:23:11.220Z,12.30
2023-04-30T08:25:38.794Z,12.40
2023-04-30T08:28:07.359Z,12.50
2023-04-30T08:30:34.818Z,12.50
2023-04-30T08:33:02.494Z,12.60
2023-04-30T08:35:30.094Z,12.70
2023-04-30T08:37:57.452Z,13.50
2023-04-30T08:40:43.871Z,12.70
2023-04-30T08:43:13.970Z,12.80
2023-04-30T08:45:42.208Z,12.90
2023-04-30T08:48:15.219Z,12.90
2023-04-30T08:50:43.193Z,13.00
2023-04-30T08:53:13.255Z,13.00
2023-04-30T08:55:41.997Z,13.10
2023-04-30T08:58:11.083Z,13.10
2023-04-30T09:00:42.079Z,13.20
2023-04-30T09:03:09.725Z,13.20
2023-04-30T09:05:38.595Z,13.30
2023-04-30T09:08:07.883Z,13.40
2023-04-30T09:10:36.022Z,13.50
2023-04-30T09:13:10.321Z,13.50
2023-04-30T09:15:41.491Z,13.60
2023-04-30T09:18:17.907Z,15.20
2023-04-30T09:21:02.101Z,13.70
2023-04-30T09:23:30.522Z,14.60
2023-04-30T09:25:58.446Z,13.80
2023-04-30T09:28:27.650Z,13.80
2023-04-30T09:30:58.402Z,13.90
2023-04-30T09:33:26.099Z,13.90
2023-04-30T09:35:55.767Z,14.00
2023-04-30T09:38:32.185Z,14.00
2023-04-30T09:41:02.053Z,14.10
2023-04-30T09:43:30.226Z,14.10
2023-04-30T09:46:00.113Z,14.20
2023-04-30T09:48:28.990Z,14.20
2023-04-30T09:50:57.124Z,14.30
2023-04-30T09:53:24.535Z,14.40
2023-04-30T09:55:52.162Z,15.00
2023-04-30T09:58:20.531Z,14.40
2023-04-30T10:00:49.745Z,14.50
2023-04-30T10:03:17.370Z,14.60
2023-04-30T10:05:47.276Z,14.60
2023-04-30T10:08:44.514Z,14.50
2023-04-30T10:11:17.117Z,14.50
2023-04-30T10:13:53.745Z,14.60
2023-04-30T10:16:40.756Z,14.60
2023-04-30T10:19:15.764Z,14.60
2023-04-30T10:21:45.789Z,14.60
2023-04-30T10:24:20.239Z,14.70
2023-04-30T10:26:48.550Z,14.80
2023-04-30T10:29:17.224Z,14.80
2023-04-30T10:31:53.160Z,14.90
2023-04-30T10:35:07.277Z,14.90
2023-04-30T10:37:48.624Z,15.00
2023-04-30T10:40:16.044Z,15.00
2023-04-30T10:42:50.347Z,15.10
2023-04-30T10:45:17.929Z,15.10
2023-04-30T10:47:47.422Z,15.10
2023-04-30T10:50:15.082Z,15.20
2023-04-30T10:52:44.569Z,15.30
2023-04-30T10:55:17.226Z,15.10
2023-04-30T10:57:46.727Z,16.10
2023-04-30T11:00:20.575Z,15.50
2023-04-30T11:02:49.932Z,15.50
2023-04-30T11:05:19.620Z,15.60
2023-04-30T11:07:52.429Z,15.70
2023-04-30T11:10:22.974Z,15.80
2023-04-30T11:12:51.920Z,15.90
2023-04-30T11:15:25.097Z,15.90
2023-04-30T11:17:58.743Z,16.00
2023-04-30T11:20:27.081Z,16.10
2023-04-30T11:23:19.639Z,16.10
2023-04-30T11:25:49.704Z,16.20
2023-04-30T11:28:18.334Z,16.20
2023-04-30T11:30:51.727Z,16.30
2023-04-30T11:33:19.829Z,16.20
2023-04-30T11:35:52.083Z,16.30
2023-04-30T11:38:28.843Z,16.30
2023-04-30T11:41:00.542Z,15.90
2023-04-30T11:43:29.076Z,16.10
2023-04-30T11:46:06.297Z,16.60
2023-04-30T11:48:38.158Z,16.50
2023-04-30T11:51:27.017Z,16.40
2023-04-30T11:53:54.581Z,16.40
2023-04-30T11:56:24.172Z,16.50
2023-04-30T11:58:57.943Z,16.50
2023-04-30T12:01:28.733Z,16.50
2023-04-30T12:03:57.705Z,16.60
2023-04-30T12:06:31.519Z,16.60
2023-04-30T12:09:09.340Z,16.70
2023-04-30T12:11:38.321Z,16.70
2023-04-30T12:14:10.565Z,16.70
2023-04-30T12:16:50.359Z,16.80
2023-04-30T12:19:22.431Z,16.80
2023-04-30T12:21:50.468Z,16.80
2023-04-30T12:24:19.312Z,16.80
2023-04-30T12:26:48.310Z,16.90
2023-04-30T12:29:17.659Z,16.90
2023-04-30T12:31:46.163Z,16.80
2023-04-30T12:34:14.866Z,16.90
2023-04-30T12:36:43.270Z,16.90
2023-04-30T12:39:13.430Z,16.90
2023-04-30T12:41:44.776Z,17.00
2023-04-30T12:44:22.193Z,17.00
2023-04-30T12:46:51.412Z,17.10
2023-04-30T12:49:30.833Z,17.00
2023-04-30T12:52:09.534Z,17.10
2023-04-30T12:54:38.168Z,17.10
2023-04-30T12:57:09.845Z,17.20
2023-04-30T12:59:53.808Z,17.20
2023-04-30T13:02:25.063Z,17.30
2023-04-30T13:05:04.705Z,17.30
2023-04-30T13:07:40.943Z,17.40
2023-04-30T13:10:08.843Z,17.30
2023-04-30T13:12:36.348Z,17.30
2023-04-30T13:15:04.041Z,17.30
2023-04-30T13:17:31.346Z,17.30
2023-04-30T13:19:58.725Z,17.20
2023-04-30T13:22:29.622Z,17.20
2023-04-30T13:24:57.107Z,17.20
2023-04-30T13:27:24.466Z,17.10
2023-04-30T13:29:51.805Z,17.20
2023-04-30T13:35:43.105Z,17.30
2023-04-30T13:38:10.394Z,17.40
2023-04-30T13:40:37.707Z,17.30
2023-04-30T13:43:05.053Z,17.30
2023-04-30T13:45:33.402Z,17.40
2023-04-30T13:48:00.683Z,17.40
2023-04-30T13:50:28.021Z,17.50
2023-04-30T13:52:55.582Z,17.50
2023-04-30T13:55:25.047Z,17.60
2023-04-30T13:57:55.905Z,17.50
2023-04-30T14:00:23.226Z,17.50
2023-04-30T14:02:50.886Z,17.50
2023-04-30T14:05:18.412Z,17.50
2023-04-30T14:07:46.724Z,17.60
2023-04-30T14:10:14.151Z,17.70
2023-04-30T14:12:41.592Z,17.60
2023-04-30T14:15:10.361Z,17.80
2023-04-30T14:17:37.833Z,17.70
2023-04-30T14:20:06.067Z,17.60
2023-04-30T14:22:35.887Z,17.60
2023-04-30T14:25:04.161Z,17.60
2023-04-30T14:27:31.648Z,17.70
2023-04-30T14:29:59.106Z,17.70
2023-04-30T14:32:28.047Z,17.70
2023-04-30T14:34:55.578Z,17.70
2023-04-30T14:37:23.010Z,17.70
2023-04-30T14:39:52.884Z,17.80
2023-04-30T14:42:20.668Z,17.80
2023-04-30T14:44:48.108Z,17.70
2023-04-30T14:47:15.557Z,17.80
2023-04-30T14:49:42.984Z,17.80
2023-04-30T14:52:10.786Z,17.80
2023-04-30T14:54:38.687Z,17.90
2023-04-30T14:57:06.872Z,17.90
2023-04-30T15:00:41.499Z,17.90
2023-04-30T15:03:09.394Z,17.90
2023-04-30T15:05:36.907Z,17.90
2023-04-30T15:08:04.550Z,17.90
2023-04-30T15:10:31.892Z,17.80
2023-04-30T15:12:59.209Z,17.80
2023-04-30T15:15:29.168Z,17.70
2023-04-30T15:17:58.012Z,17.60
2023-04-30T15:20:27.284Z,17.70
2023-04-30T15:22:58.606Z,17.60
2023-04-30T15:25:26.642Z,17.70
2023-04-30T15:27:54.769Z,17.70
2023-04-30T15:30:22.178Z,17.70
2023-04-30T15:32:50.498Z,17.70
2023-04-30T15:35:18.044Z,17.70
2023-04-30T15:37:45.430Z,17.50
2023-04-30T15:40:15.413Z,17.60
2023-04-30T15:42:43.707Z,17.50
2023-04-30T15:45:11.212Z,17.50
2023-04-30T15:47:39.080Z,17.50
2023-04-30T15:50:07.347Z,17.50
2023-04-30T15:52:35.042Z,17.50
2023-04-30T15:55:02.399Z,17.50
2023-04-30T15:57:29.807Z,17.50
2023-04-30T15:59:57.626Z,17.50
2023-04-30T16:02:25.208Z,17.50
2023-04-30T16:04:52.677Z,17.40
2023-04-30T16:07:20.027Z,17.10
2023-04-30T16:09:49.159Z,17.30
2023-04-30T16:12:16.471Z,17.30
2023-04-30T16:14:43.879Z,17.30
2023-04-30T16:17:11.341Z,17.20
2023-04-30T16:19:38.743Z,17.10
2023-04-30T16:22:06.184Z,17.10
2023-04-30T16:24:33.622Z,17.20
2023-04-30T16:27:01.236Z,17.10
2023-04-30T16:29:28.560Z,16.60
2023-04-30T16:31:56.677Z,17.10
2023-04-30T16:34:24.180Z,17.10
2023-04-30T16:36:51.501Z,17.10
2023-04-30T16:39:18.750Z,17.10
2023-04-30T16:41:46.065Z,17.10
2023-04-30T16:44:13.433Z,17.00
2023-04-30T16:46:40.749Z,16.90
2023-04-30T16:49:08.201Z,16.90
2023-04-30T16:51:35.507Z,16.90
2023-04-30T16:54:02.903Z,16.90
2023-04-30T16:56:30.379Z,16.90
2023-04-30T16:58:57.614Z,16.80
2023-04-30T17:01:24.967Z,16.80
2023-04-30T17:03:52.442Z,16.80
2023-04-30T17:06:20.008Z,16.70
2023-04-30T17:08:47.401Z,16.70
2023-04-30T17:11:19.247Z,16.70
2023-04-30T17:13:46.839Z,16.60
2023-04-30T17:16:14.248Z,16.60
2023-04-30T17:18:41.865Z,16.60
2023-04-30T17:21:10.363Z,16.50
2023-04-30T17:23:37.732Z,16.50
2023-04-30T17:26:05.811Z,16.50
2023-04-30T17:28:33.191Z,16.40
2023-04-30T17:31:06.773Z,16.40
2023-04-30T17:33:35.655Z,16.40
2023-04-30T17:36:03.156Z,16.40
2023-04-30T17:38:30.780Z,16.30
2023-04-30T17:40:58.300Z,16.20
2023-04-30T17:43:25.917Z,16.20
2023-04-30T17:45:53.658Z,16.20
2023-04-30T17:48:21.155Z,16.20
2023-04-30T17:50:48.586Z,16.10
2023-04-30T17:53:16.111Z,16.10
2023-04-30T17:55:43.468Z,16.00
2023-04-30T17:58:11.587Z,16.00
2023-04-30T18:00:42.921Z,16.00
2023-04-30T18:03:10.424Z,16.00
2023-04-30T18:05:39.243Z,15.90
2023-04-30T18:08:06.766Z,15.90
2023-04-30T18:10:34.205Z,15.80
2023-04-30T18:13:01.605Z,15.80
2023-04-30T18:15:29.594Z,15.70
2023-04-30T18:17:57.100Z,15.70
2023-04-30T18:20:24.520Z,15.60
2023-04-30T18:22:51.877Z,15.60
2023-04-30T18:25:19.289Z,15.60
2023-04-30T18:27:46.581Z,15.50
2023-04-30T18:30:14.067Z,15.50
2023-04-30T18:32:41.954Z,15.40
2023-04-30T18:35:10.241Z,15.40
2023-04-30T18:37:37.536Z,15.40
2023-04-30T18:40:05.384Z,14.10
2023-04-30T18:42:33.516Z,15.40
2023-04-30T18:45:02.196Z,15.30
2023-04-30T18:47:30.987Z,15.40
2023-04-30T18:49:59.034Z,15.30
2023-04-30T18:52:26.544Z,15.30
2023-04-30T18:54:53.958Z,15.20
2023-04-30T18:57:21.529Z,15.30
2023-04-30T18:59:49.302Z,15.30
2023-04-30T19:02:16.746Z,15.20
2023-04-30T19:04:45.770Z,15.20
2023-04-30T19:07:14.393Z,15.20
2023-04-30T19:09:41.797Z,15.10
2023-04-30T19:12:10.564Z,15.10
2023-04-30T19:14:38.051Z,15.10
2023-04-30T19:17:05.859Z,15.10
2023-04-30T19:19:36.914Z,15.10
2023-04-30T19:26:43.090Z,15.00
2023-04-30T19:29:10.880Z,15.00
2023-04-30T19:35:29.890Z,15.00
2023-04-30T19:38:16.174Z,14.90
2023-04-30T19:40:48.020Z,14.90
2023-04-30T19:43:16.582Z,14.70
2023-04-30T19:45:50.131Z,15.40
2023-04-30T19:48:17.761Z,14.70
2023-04-30T19:50:54.386Z,14.60
2023-04-30T19:53:22.799Z,14.50
2023-04-30T19:55:52.489Z,14.40
2023-04-30T19:58:22.540Z,14.30
2023-04-30T20:00:50.031Z,14.20
2023-04-30T20:03:19.944Z,14.10
2023-04-30T20:05:47.341Z,14.10
2023-04-30T20:08:14.827Z,14.00
2023-04-30T20:10:42.896Z,14.00
2023-04-30T20:13:10.386Z,13.90
2023-04-30T20:15:37.697Z,13.90
2023-04-30T20:18:06.106Z,13.90
2023-04-30T20:20:33.530Z,14.40
2023-04-30T20:23:14.054Z,13.80
2023-04-30T20:25:44.921Z,13.90
2023-04-30T20:28:13.350Z,13.80
2023-04-30T20:30:42.906Z,13.70
2023-04-30T20:33:11.920Z,13.70
2023-04-30T20:35:47.312Z,13.70
2023-04-30T20:38:19.533Z,13.70
2023-04-30T20:40:47.358Z,13.70
2023-04-30T20:43:17.013Z,13.70
2023-04-30T20:45:45.364Z,13.60
2023-04-30T20:48:12.971Z,13.60
2023-04-30T20:50:48.029Z,13.60
2023-04-30T20:53:18.334Z,13.60
2023-04-30T20:55:46.576Z,13.80
2023-04-30T20:58:14.071Z,13.50
2023-04-30T21:00:41.598Z,13.50
2023-04-30T21:03:09.637Z,13.40
2023-04-30T21:05:37.175Z,13.40
2023-04-30T21:08:04.644Z,13.40
2023-04-30T21:10:36.517Z,13.30
2023-04-30T21:13:05.721Z,13.30
2023-04-30T21:15:35.763Z,13.30
2023-04-30T21:18:03.425Z,13.30
2023-04-30T21:20:31.629Z,13.20
2023-04-30T21:22:59.345Z,13.20
2023-04-30T21:25:27.033Z,13.20
2023-04-30T21:27:54.948Z,13.20
2023-04-30T21:30:24.377Z,13.20
2023-04-30T21:32:58.475Z,13.20
2023-04-30T21:35:27.932Z,13.20
2023-04-30T21:37:56.357Z,13.10
2023-04-30T21:40:23.953Z,13.10
2023-04-30T21:42:52.847Z,13.00
2023-04-30T21:45:20.415Z,13.00
2023-04-30T21:47:50.092Z,12.90
2023-04-30T21:50:18.016Z,12.90
2023-04-30T21:52:45.375Z,12.90
2023-04-30T21:55:12.733Z,13.30
2023-04-30T21:57:40.165Z,12.80
2023-04-30T22:00:08.866Z,12.80
2023-04-30T22:02:36.476Z,12.80
2023-04-30T22:05:04.474Z,12.80
2023-04-30T22:07:31.943Z,12.70
2023-04-30T22:09:59.328Z,12.80
2023-04-30T22:12:26.982Z,12.70
2023-04-30T22:14:56.345Z,12.80
2023-04-30T22:17:23.774Z,12.80
2023-04-30T22:19:51.226Z,12.70
2023-04-30T22:22:18.743Z,12.70
2023-04-30T22:24:46.395Z,12.70
2023-04-30T22:27:14.412Z,12.70
2023-04-30T22:29:42.684Z,12.70
2023-04-30T22:32:10.056Z,12.80
2023-04-30T22:34:41.905Z,12.80
2023-04-30T22:37:12.561Z,12.80
2023-04-30T22:39:40.150Z,12.80
2023-04-30T22:42:09.665Z,12.80
2023-04-30T22:44:40.085Z,12.70
2023-04-30T22:47:07.732Z,12.80
2023-04-30T22:49:36.232Z,12.70
2023-04-30T22:52:04.606Z,12.70
2023-04-30T22:54:32.098Z,12.70
2023-04-30T22:56:59.812Z,12.70
2023-04-30T22:59:27.179Z,12.80
2023-04-30T23:01:54.782Z,12.70
2023-04-30T23:04:22.719Z,12.70
2023-04-30T23:06:50.194Z,12.70
2023-04-30T23:09:17.678Z,12.70
2023-04-30T23:11:45.329Z,12.70
2023-04-30T23:14:13.167Z,12.70
2023-04-30T23:16:42.840Z,12.60
2023-04-30T23:19:10.831Z,12.70
2023-04-30T23:21:38.763Z,12.60
2023-04-30T23:24:06.115Z,12.60
2023-04-30T23:26:33.415Z,12.60
2023-04-30T23:29:01.075Z,12.60
2023-04-30T23:31:28.683Z,12.60
2023-04-30T23:33:56.248Z,12.60
2023-04-30T23:36:23.883Z,12.60
2023-04-30T23:38:54.400Z,12.50
2023-04-30T23:41:21.764Z,12.50
2023-04-30T23:43:49.135Z,12.50
2023-04-30T23:46:16.813Z,12.50
2023-04-30T23:48:44.302Z,12.50
2023-04-30T23:51:11.924Z,12.50
2023-04-30T23:53:39.688Z,12.40
2023-04-30T23:56:09.263Z,12.40
2023-04-30T23:58:36.676Z,12.40
